Terminal Aerodrome Forecast
Issued by NWS Salt Lake City, UT

Home | Current Version | Previous Version | Text Only | Print | Product List | Glossary On
Versions: 1 2 3 4 5 6 7 8 9 10 11 12 13 14 15 16 17 18 19 20 21 22 23 24
000
FTUS45 KSLC 280533
TAFCDC
TAF
KCDC 280533Z 2806/2906 16008KT P6SM SCT200
     FM281000 19005KT P6SM SCT200
     FM281800 21012G22KT P6SM FEW200
     FM290100 19010KT P6SM FEW200=

USA.gov is the U.S. government's official web portal to all federal, state and local government web resources and services.